createdAt,value
2023-11-22T00:00:57.721Z,0
2023-11-22T00:03:57.692Z,0
2023-11-22T00:06:57.453Z,0
2023-11-22T00:09:58.099Z,0
2023-11-22T00:12:58.150Z,0
2023-11-22T00:15:58.023Z,0
2023-11-22T00:18:58.087Z,0.6666666666666666
2023-11-22T00:21:57.919Z,0
2023-11-22T00:24:57.389Z,0
2023-11-22T00:27:57.929Z,0
2023-11-22T00:30:58.847Z,0
2023-11-22T00:33:57.910Z,0
2023-11-22T00:36:57.858Z,0.3333333333333333
2023-11-22T00:39:57.918Z,0
2023-11-22T00:42:58.139Z,0
2023-11-22T00:45:58.494Z,0
2023-11-22T00:48:58.500Z,0
2023-11-22T00:51:59.712Z,0.3333333333333333
2023-11-22T00:54:58.398Z,0
2023-11-22T00:57:58.193Z,0
2023-11-22T01:00:58.521Z,0.3333333333333333
2023-11-22T01:03:58.332Z,0
2023-11-22T01:06:58.434Z,0
2023-11-22T01:09:58.380Z,1.3333333333333333
2023-11-22T01:12:57.917Z,0
2023-11-22T01:15:58.576Z,0
2023-11-22T01:18:58.194Z,0.3333333333333333
2023-11-22T01:22:00.182Z,0
2023-11-22T01:24:58.227Z,0
2023-11-22T01:27:58.075Z,0
2023-11-22T01:30:58.318Z,0
2023-11-22T01:33:57.730Z,0
2023-11-22T01:36:57.880Z,0
2023-11-22T01:39:57.942Z,0
2023-11-22T01:42:56.950Z,0.3333333333333333
2023-11-22T01:45:57.834Z,0
2023-11-22T01:48:57.351Z,0.3333333333333333
2023-11-22T01:51:58.262Z,0
2023-11-22T01:54:57.946Z,0
2023-11-22T01:57:58.109Z,2
2023-11-22T02:00:58.517Z,0
2023-11-22T02:03:58.295Z,0
2023-11-22T02:06:58.194Z,1
2023-11-22T02:09:58.456Z,0
2023-11-22T02:12:57.908Z,0
2023-11-22T02:15:58.392Z,0
2023-11-22T02:18:57.403Z,0
2023-11-22T02:21:57.973Z,0
2023-11-22T02:24:58.636Z,0
2023-11-22T02:27:57.487Z,0
2023-11-22T02:30:58.135Z,0.3333333333333333
2023-11-22T02:33:57.332Z,1.3333333333333333
2023-11-22T02:37:03.248Z,1.3333333333333333
2023-11-22T02:39:57.520Z,0
2023-11-22T02:42:57.634Z,0
2023-11-22T02:45:58.873Z,0
2023-11-22T02:48:57.650Z,0.3333333333333333
2023-11-22T02:51:58.354Z,0
2023-11-22T02:54:57.843Z,0
2023-11-22T02:57:57.366Z,0
2023-11-22T03:00:58.851Z,0
2023-11-22T03:03:58.640Z,0
2023-11-22T03:06:58.547Z,0.3333333333333333
2023-11-22T03:09:57.493Z,0
2023-11-22T03:12:58.149Z,0
2023-11-22T03:15:58.219Z,1
2023-11-22T03:18:58.468Z,0
2023-11-22T03:21:57.448Z,0
2023-11-22T03:24:57.335Z,0
2023-11-22T03:27:57.733Z,0
2023-11-22T03:30:57.209Z,0
2023-11-22T03:33:58.014Z,0
2023-11-22T03:36:57.940Z,0
2023-11-22T03:39:57.201Z,0.3333333333333333
2023-11-22T03:42:57.805Z,0
2023-11-22T03:45:58.181Z,0
2023-11-22T03:48:58.725Z,0.3333333333333333
2023-11-22T03:51:57.418Z,0.3333333333333333
2023-11-22T03:54:57.901Z,0
2023-11-22T03:57:57.976Z,0.3333333333333333
2023-11-22T04:00:58.187Z,0
2023-11-22T04:03:57.492Z,0
2023-11-22T04:06:59.706Z,0
2023-11-22T04:09:57.439Z,0
2023-11-22T04:12:58.036Z,0
2023-11-22T04:15:58.053Z,0
2023-11-22T04:18:57.737Z,3.6666666666666665
2023-11-22T04:21:57.505Z,0.3333333333333333
2023-11-22T04:24:57.611Z,1
2023-11-22T04:27:57.021Z,0
2023-11-22T04:30:57.704Z,0
2023-11-22T04:33:57.959Z,0
2023-11-22T04:36:57.410Z,0
2023-11-22T04:39:58.317Z,0
2023-11-22T04:42:57.258Z,1.3333333333333333
2023-11-22T04:45:58.135Z,1
2023-11-22T04:48:57.484Z,0
2023-11-22T04:51:58.176Z,0
2023-11-22T04:54:58.113Z,0
2023-11-22T04:57:57.950Z,0
2023-11-22T05:00:58.124Z,0
2023-11-22T05:03:58.411Z,0
2023-11-22T05:06:58.659Z,0
2023-11-22T05:09:57.392Z,11.333333333333334
2023-11-22T05:12:57.343Z,13.333333333333334
2023-11-22T05:15:57.917Z,13
2023-11-22T05:18:58.768Z,16.666666666666668
2023-11-22T05:21:57.974Z,20.333333333333332
2023-11-22T05:24:57.468Z,16
2023-11-22T05:28:04.960Z,14.666666666666666
2023-11-22T05:30:57.628Z,13.666666666666666
2023-11-22T05:33:58.040Z,7.333333333333333
2023-11-22T05:36:58.408Z,12.333333333333334
2023-11-22T05:40:02.464Z,10.666666666666666
2023-11-22T05:42:58.737Z,10
2023-11-22T05:45:58.439Z,12.333333333333334
2023-11-22T05:48:58.362Z,13
2023-11-22T05:51:57.888Z,11.666666666666666
2023-11-22T05:54:58.492Z,10.666666666666666
2023-11-22T05:57:57.506Z,9.666666666666666
2023-11-22T06:00:59.422Z,13
2023-11-22T06:03:58.095Z,19
2023-11-22T06:06:58.185Z,22.666666666666668
2023-11-22T06:09:59.119Z,0
2023-11-22T06:12:58.228Z,2.3333333333333335
2023-11-22T06:15:58.148Z,0
2023-11-22T06:19:04.688Z,1
2023-11-22T06:21:58.786Z,1
2023-11-22T06:24:59.112Z,1.6666666666666667
2023-11-22T06:27:59.640Z,1.3333333333333333
2023-11-22T06:30:58.294Z,1.6666666666666667
2023-11-22T06:33:58.717Z,1
2023-11-22T06:36:57.876Z,2.6666666666666665
2023-11-22T06:39:58.153Z,6
2023-11-22T06:42:57.717Z,5
2023-11-22T06:45:58.676Z,6.333333333333333
2023-11-22T06:48:58.539Z,8.333333333333334
2023-11-22T06:51:57.994Z,12
2023-11-22T06:54:58.386Z,13.333333333333334
2023-11-22T06:57:58.107Z,15
2023-11-22T07:00:59.406Z,16.333333333333332
2023-11-22T07:03:57.606Z,18.333333333333332
2023-11-22T07:06:57.978Z,25
2023-11-22T07:10:00.524Z,30
2023-11-22T07:12:58.397Z,35
2023-11-22T07:15:58.655Z,34.666666666666664
2023-11-22T07:18:57.702Z,29.666666666666668
2023-11-22T07:21:57.811Z,28.666666666666668
2023-11-22T07:24:58.251Z,33.333333333333336
2023-11-22T07:27:59.237Z,32.666666666666664
2023-11-22T07:30:58.394Z,35
2023-11-22T07:33:58.059Z,36
2023-11-22T07:36:57.492Z,49
2023-11-22T07:39:58.304Z,59.333333333333336
2023-11-22T07:42:57.713Z,68.66666666666667
2023-11-22T07:45:58.702Z,62.666666666666664
2023-11-22T07:48:57.496Z,76.33333333333333
2023-11-22T07:51:57.577Z,69.33333333333333
2023-11-22T07:54:57.819Z,72.66666666666667
2023-11-22T07:57:57.803Z,65.66666666666667
2023-11-22T08:00:58.400Z,73.66666666666667
2023-11-22T08:03:57.978Z,64.66666666666667
2023-11-22T08:06:57.673Z,66
2023-11-22T08:09:58.064Z,44.666666666666664
2023-11-22T08:12:57.613Z,54
2023-11-22T08:15:58.517Z,60
2023-11-22T08:18:57.315Z,58.333333333333336
2023-11-22T08:21:57.318Z,58.333333333333336
2023-11-22T08:24:57.975Z,73.66666666666667
2023-11-22T08:27:57.919Z,47.666666666666664
2023-11-22T08:30:58.838Z,77
2023-11-22T08:33:57.841Z,70
2023-11-22T08:36:58.998Z,73.33333333333333
2023-11-22T08:39:58.111Z,83.66666666666667
2023-11-22T08:42:57.349Z,82.33333333333333
2023-11-22T08:46:05.116Z,83.66666666666667
2023-11-22T08:48:58.009Z,92
2023-11-22T08:51:57.954Z,86.33333333333333
2023-11-22T08:54:57.865Z,102
2023-11-22T08:57:57.759Z,118.66666666666667
2023-11-22T09:00:58.238Z,132
2023-11-22T09:03:58.279Z,149
2023-11-22T09:06:58.106Z,163.33333333333334
2023-11-22T09:09:58.738Z,163.66666666666666
2023-11-22T09:12:57.770Z,171.66666666666666
2023-11-22T09:15:57.605Z,171
2023-11-22T09:18:58.706Z,165
2023-11-22T09:21:58.478Z,171
2023-11-22T09:24:58.569Z,170.66666666666666
2023-11-22T09:27:58.242Z,166
2023-11-22T09:30:58.966Z,127
2023-11-22T09:33:57.614Z,222.33333333333334
2023-11-22T09:36:57.377Z,210
2023-11-22T09:39:58.297Z,189.66666666666666
2023-11-22T09:42:57.581Z,187.33333333333334
2023-11-22T09:45:59.998Z,196
2023-11-22T09:48:58.469Z,175.33333333333334
2023-11-22T09:51:58.037Z,174.33333333333334
2023-11-22T09:54:58.609Z,165
2023-11-22T09:57:58.304Z,170
2023-11-22T10:00:57.926Z,112.33333333333333
2023-11-22T10:03:57.498Z,164
2023-11-22T10:06:57.607Z,159.66666666666666
2023-11-22T10:09:57.726Z,164.33333333333334
2023-11-22T10:12:57.788Z,154
2023-11-22T10:15:57.940Z,146.66666666666666
2023-11-22T10:18:58.324Z,146.66666666666666
2023-11-22T10:21:57.530Z,143.33333333333334
2023-11-22T10:24:57.693Z,137.33333333333334
2023-11-22T10:27:57.848Z,138
2023-11-22T10:30:58.148Z,142
2023-11-22T10:33:58.202Z,139
2023-11-22T10:36:58.690Z,131.33333333333334
2023-11-22T10:39:58.555Z,130.66666666666666
2023-11-22T10:42:57.795Z,130.33333333333334
2023-11-22T10:45:58.554Z,120.33333333333333
2023-11-22T10:48:58.551Z,127.33333333333333
2023-11-22T10:51:57.817Z,131.66666666666666
2023-11-22T10:54:57.894Z,117.33333333333333
2023-11-22T10:57:58.024Z,122.33333333333333
2023-11-22T11:00:58.062Z,118.66666666666667
2023-11-22T11:04:17.565Z,123.66666666666667
2023-11-22T11:06:58.061Z,123
2023-11-22T11:09:58.448Z,131.33333333333334
2023-11-22T11:12:58.033Z,134.66666666666666
2023-11-22T11:15:58.670Z,137
2023-11-22T11:18:57.920Z,142.33333333333334
2023-11-22T11:21:57.774Z,144.33333333333334
2023-11-22T11:24:58.027Z,148.66666666666666
2023-11-22T11:27:58.231Z,146.66666666666666
2023-11-22T11:30:58.937Z,137.66666666666666
2023-11-22T11:33:58.290Z,142
2023-11-22T11:36:57.862Z,142.33333333333334
2023-11-22T11:39:58.362Z,138.33333333333334
2023-11-22T11:42:57.963Z,140.66666666666666
2023-11-22T11:45:58.527Z,143.33333333333334
2023-11-22T11:48:57.714Z,147
2023-11-22T11:51:57.765Z,148.33333333333334
2023-11-22T11:54:58.425Z,140.66666666666666
2023-11-22T11:57:58.036Z,137.66666666666666
2023-11-22T12:00:58.923Z,124.33333333333333
2023-11-22T12:03:57.631Z,136.33333333333334
2023-11-22T12:06:57.394Z,138.66666666666666
2023-11-22T12:09:58.643Z,150.66666666666666
2023-11-22T12:12:58.394Z,149.66666666666666
2023-11-22T12:15:58.437Z,141.33333333333334
2023-11-22T12:18:58.196Z,137.66666666666666
2023-11-22T12:21:58.125Z,128
2023-11-22T12:24:57.914Z,108.66666666666667
2023-11-22T12:27:57.727Z,99.66666666666667
2023-11-22T12:30:57.947Z,236
2023-11-22T12:33:57.807Z,87.66666666666667
2023-11-22T12:36:58.027Z,88
2023-11-22T12:39:58.502Z,101.33333333333333
2023-11-22T12:42:57.792Z,92.66666666666667
2023-11-22T12:45:58.262Z,86.33333333333333
2023-11-22T12:48:58.256Z,83.33333333333333
2023-11-22T12:51:58.917Z,85.66666666666667
2023-11-22T12:54:58.496Z,85.33333333333333
2023-11-22T12:57:58.454Z,84
2023-11-22T13:00:58.713Z,83
2023-11-22T13:03:58.233Z,85
2023-11-22T13:06:57.512Z,85.66666666666667
2023-11-22T13:09:58.645Z,84.66666666666667
2023-11-22T13:12:57.318Z,81.33333333333333
2023-11-22T13:15:57.855Z,83
2023-11-22T13:18:58.400Z,84
2023-11-22T13:21:57.863Z,71
2023-11-22T13:24:58.258Z,70.33333333333333
2023-11-22T13:27:57.843Z,55
2023-11-22T13:30:58.281Z,63.666666666666664
2023-11-22T13:33:58.098Z,63
2023-11-22T13:36:57.504Z,62
2023-11-22T13:39:57.985Z,71.33333333333333
2023-11-22T13:42:58.144Z,72.66666666666667
2023-11-22T13:45:58.562Z,64.33333333333333
2023-11-22T13:48:57.800Z,62.333333333333336
2023-11-22T13:51:58.232Z,58
2023-11-22T13:54:59.315Z,50.333333333333336
2023-11-22T13:57:58.377Z,41.666666666666664
2023-11-22T14:00:57.716Z,43
2023-11-22T14:03:58.775Z,48
2023-11-22T14:06:57.099Z,44
2023-11-22T14:09:59.087Z,40
2023-11-22T14:12:58.321Z,44
2023-11-22T14:15:57.422Z,38
2023-11-22T14:18:58.157Z,37.666666666666664
2023-11-22T14:21:57.152Z,37.666666666666664
2023-11-22T14:24:57.204Z,37.333333333333336
2023-11-22T14:27:57.165Z,38.333333333333336
2023-11-22T14:30:57.930Z,36.333333333333336
2023-11-22T14:33:58.881Z,35.666666666666664
2023-11-22T14:36:58.867Z,36
2023-11-22T14:39:59.142Z,34.666666666666664
2023-11-22T14:42:58.094Z,30.666666666666668
2023-11-22T14:45:58.685Z,29.666666666666668
2023-11-22T14:48:57.936Z,29.666666666666668
2023-11-22T14:51:57.313Z,28.666666666666668
2023-11-22T14:54:58.035Z,28.666666666666668
2023-11-22T14:57:58.307Z,23.333333333333332
2023-11-22T15:00:58.562Z,19
2023-11-22T15:03:57.881Z,15.666666666666666
2023-11-22T15:06:58.352Z,12
2023-11-22T15:09:58.881Z,9.666666666666666
2023-11-22T15:12:58.370Z,7.666666666666667
2023-11-22T15:15:59.060Z,7.666666666666667
2023-11-22T15:18:57.661Z,6
2023-11-22T15:21:58.318Z,6.333333333333333
2023-11-22T15:24:58.570Z,4
2023-11-22T15:27:58.226Z,2.6666666666666665
2023-11-22T15:30:57.855Z,4
2023-11-22T15:33:58.503Z,1.3333333333333333
2023-11-22T15:36:58.358Z,3
2023-11-22T15:39:58.449Z,2.6666666666666665
2023-11-22T15:42:57.579Z,2
2023-11-22T15:45:58.300Z,0.3333333333333333
2023-11-22T15:48:57.287Z,0.3333333333333333
2023-11-22T15:51:57.623Z,1.6666666666666667
2023-11-22T15:54:57.976Z,0
2023-11-22T15:57:57.985Z,0
2023-11-22T16:00:58.112Z,1.3333333333333333
2023-11-22T16:03:58.077Z,0
2023-11-22T16:06:57.908Z,0
2023-11-22T16:09:58.700Z,0.6666666666666666
2023-11-22T16:12:57.919Z,0.3333333333333333
2023-11-22T16:15:57.749Z,0
2023-11-22T16:18:58.042Z,0
2023-11-22T16:21:58.769Z,0
2023-11-22T16:24:58.068Z,0
2023-11-22T16:27:57.730Z,0
2023-11-22T16:30:58.392Z,1.6666666666666667
2023-11-22T16:33:57.727Z,3.6666666666666665
2023-11-22T16:36:57.877Z,0.6666666666666666
2023-11-22T16:39:59.038Z,0
2023-11-22T16:42:57.665Z,0
2023-11-22T16:45:59.148Z,0.6666666666666666
2023-11-22T16:48:59.038Z,13
2023-11-22T16:51:58.039Z,11
2023-11-22T16:54:58.700Z,0
2023-11-22T16:57:59.580Z,0
2023-11-22T17:00:59.612Z,0
2023-11-22T17:03:58.245Z,0
2023-11-22T17:06:58.260Z,0
2023-11-22T17:09:58.467Z,0
2023-11-22T17:12:58.128Z,0
2023-11-22T17:15:59.106Z,0
2023-11-22T17:18:57.900Z,0
2023-11-22T17:21:57.968Z,0.3333333333333333
2023-11-22T17:24:57.834Z,0
2023-11-22T17:27:58.054Z,27.666666666666668
2023-11-22T17:30:58.362Z,28.666666666666668
2023-11-22T17:33:58.110Z,29
2023-11-22T17:37:06.297Z,24.333333333333332
2023-11-22T17:39:58.880Z,0
2023-11-22T17:42:58.736Z,0
2023-11-22T17:45:58.261Z,0
2023-11-22T17:48:58.209Z,0.3333333333333333
2023-11-22T17:51:59.124Z,0
2023-11-22T17:54:59.098Z,0
2023-11-22T17:57:58.756Z,0
2023-11-22T18:00:59.257Z,0
2023-11-22T18:03:58.538Z,0
2023-11-22T18:07:07.210Z,0
2023-11-22T18:09:58.265Z,0
2023-11-22T18:12:58.160Z,0
2023-11-22T18:15:58.132Z,0
2023-11-22T18:18:57.755Z,0
2023-11-22T18:21:58.612Z,0
2023-11-22T18:25:05.684Z,0.3333333333333333
2023-11-22T18:27:58.030Z,0.6666666666666666
2023-11-22T18:30:58.641Z,0.3333333333333333
2023-11-22T18:33:58.306Z,0
2023-11-22T18:36:58.267Z,0
2023-11-22T18:39:59.407Z,0.3333333333333333
2023-11-22T18:42:57.780Z,1.6666666666666667
2023-11-22T18:45:59.450Z,0
2023-11-22T18:48:57.959Z,8
2023-11-22T18:51:58.696Z,0
2023-11-22T18:54:57.887Z,0.3333333333333333
2023-11-22T18:57:58.715Z,0.3333333333333333
2023-11-22T19:01:28.950Z,0.6666666666666666
2023-11-22T19:03:58.101Z,0
2023-11-22T19:06:58.385Z,0.6666666666666666
2023-11-22T19:09:57.929Z,0.6666666666666666
2023-11-22T19:12:57.931Z,0
2023-11-22T19:15:58.432Z,4
2023-11-22T19:18:58.324Z,0.3333333333333333
2023-11-22T19:21:57.438Z,0.3333333333333333
2023-11-22T19:24:58.285Z,0
2023-11-22T19:27:58.232Z,2.3333333333333335
2023-11-22T19:30:58.677Z,2
2023-11-22T19:33:58.074Z,0.3333333333333333
2023-11-22T19:36:57.694Z,0
2023-11-22T19:39:58.563Z,2
2023-11-22T19:42:57.603Z,0
2023-11-22T19:45:58.086Z,0.3333333333333333
2023-11-22T19:48:57.958Z,0.6666666666666666
2023-11-22T19:51:58.209Z,0.3333333333333333
2023-11-22T19:54:58.723Z,0.3333333333333333
2023-11-22T19:57:58.040Z,0
2023-11-22T20:00:59.058Z,0.6666666666666666
2023-11-22T20:03:58.443Z,0
2023-11-22T20:06:57.573Z,0
2023-11-22T20:10:01.438Z,19.333333333333332
2023-11-22T20:12:57.985Z,7.333333333333333
2023-11-22T20:15:57.910Z,25.333333333333332
2023-11-22T20:18:57.516Z,23
2023-11-22T20:21:57.772Z,20.333333333333332
2023-11-22T20:24:57.922Z,0
2023-11-22T20:27:58.681Z,0
2023-11-22T20:30:58.630Z,0
2023-11-22T20:33:58.416Z,0
2023-11-22T20:36:57.430Z,0.3333333333333333
2023-11-22T20:39:57.864Z,1.3333333333333333
2023-11-22T20:42:58.153Z,0
2023-11-22T20:45:58.358Z,0
2023-11-22T20:48:58.115Z,1
2023-11-22T20:51:58.221Z,0
2023-11-22T20:54:58.213Z,26.666666666666668
2023-11-22T20:57:58.241Z,26
2023-11-22T21:00:58.565Z,25.666666666666668
2023-11-22T21:03:58.031Z,26.666666666666668
2023-11-22T21:06:57.867Z,27
2023-11-22T21:09:58.365Z,26.333333333333332
2023-11-22T21:12:58.698Z,25.666666666666668
2023-11-22T21:15:58.919Z,25.666666666666668
2023-11-22T21:18:57.736Z,19.333333333333332
2023-11-22T21:21:58.568Z,0
2023-11-22T21:24:58.360Z,0
2023-11-22T21:27:57.585Z,0
2023-11-22T21:30:58.620Z,9
2023-11-22T21:33:58.351Z,11.333333333333334
2023-11-22T21:36:58.157Z,0.6666666666666666
2023-11-22T21:39:57.709Z,21.333333333333332
2023-11-22T21:42:57.847Z,0.3333333333333333
2023-11-22T21:45:58.142Z,0
2023-11-22T21:48:57.973Z,0.3333333333333333
2023-11-22T21:51:57.722Z,0.3333333333333333
2023-11-22T21:54:58.101Z,0
2023-11-22T21:57:57.785Z,0
2023-11-22T22:00:58.254Z,0
2023-11-22T22:03:58.156Z,0.3333333333333333
2023-11-22T22:06:58.223Z,0
2023-11-22T22:09:58.453Z,1
2023-11-22T22:12:57.430Z,0
2023-11-22T22:15:57.889Z,0
2023-11-22T22:18:57.861Z,0
2023-11-22T22:21:58.573Z,0
2023-11-22T22:24:58.043Z,0
2023-11-22T22:27:58.711Z,1
2023-11-22T22:30:58.055Z,0
2023-11-22T22:33:57.624Z,0
2023-11-22T22:36:57.853Z,0
2023-11-22T22:39:58.135Z,0
2023-11-22T22:42:57.982Z,0
2023-11-22T22:45:58.318Z,0
2023-11-22T22:48:58.346Z,0
2023-11-22T22:52:05.940Z,0
2023-11-22T22:54:57.692Z,0
2023-11-22T22:57:58.322Z,0
2023-11-22T23:00:58.323Z,0
2023-11-22T23:03:58.133Z,0
2023-11-22T23:06:57.374Z,0
2023-11-22T23:09:57.539Z,0
2023-11-22T23:12:58.115Z,9.333333333333334
2023-11-22T23:15:58.073Z,0
2023-11-22T23:19:00.872Z,0
2023-11-22T23:21:57.250Z,0
2023-11-22T23:24:58.156Z,0
2023-11-22T23:27:57.458Z,0
2023-11-22T23:30:58.787Z,0
2023-11-22T23:33:57.994Z,0
2023-11-22T23:36:58.023Z,0
2023-11-22T23:39:58.648Z,0
2023-11-22T23:42:57.693Z,0
2023-11-22T23:45:57.823Z,0
2023-11-22T23:48:57.480Z,0
2023-11-22T23:51:57.001Z,0
2023-11-22T23:54:58.352Z,0
2023-11-22T23:57:58.560Z,0.3333333333333333
